createdAt,value
2019-03-30T00:02:27.166Z,9.87
2019-03-30T00:04:59.345Z,9.20
2019-03-30T00:07:31.377Z,7.77
2019-03-30T00:10:03.549Z,12.20
2019-03-30T00:12:35.558Z,11.23
2019-03-30T00:15:07.854Z,11.13
2019-03-30T00:17:40.452Z,11.10
2019-03-30T00:20:12.600Z,13.50
2019-03-30T00:22:44.592Z,14.27
2019-03-30T00:25:16.907Z,15.63
2019-03-30T00:27:49.409Z,11.27
2019-03-30T00:30:21.578Z,12.70
2019-03-30T00:32:53.708Z,14.87
2019-03-30T00:35:25.722Z,11.13
2019-03-30T00:37:57.724Z,11.53
2019-03-30T00:40:30.097Z,10.80
2019-03-30T00:43:02.163Z,10.80
2019-03-30T00:45:34.082Z,12.47
2019-03-30T00:48:07.329Z,13.67
2019-03-30T00:50:39.321Z,11.33
2019-03-30T00:53:11.403Z,13.67
2019-03-30T00:55:43.429Z,11.90
2019-03-30T00:58:15.347Z,10.50
2019-03-30T01:00:47.879Z,9.00
2019-03-30T01:03:19.934Z,9.80
2019-03-30T01:05:52.021Z,10.90
2019-03-30T01:08:24.515Z,10.80
2019-03-30T01:10:56.500Z,8.90
2019-03-30T01:13:29.407Z,10.40
2019-03-30T01:16:01.551Z,9.60
2019-03-30T01:18:33.626Z,9.63
2019-03-30T01:21:05.804Z,11.00
2019-03-30T01:23:37.994Z,10.17
2019-03-30T01:26:10.510Z,9.10
2019-03-30T01:28:42.987Z,9.67
2019-03-30T01:31:15.046Z,10.93
2019-03-30T01:33:47.281Z,12.63
2019-03-30T01:36:19.438Z,8.83
2019-03-30T01:38:51.504Z,9.07
2019-03-30T01:41:23.505Z,11.00
2019-03-30T01:43:55.668Z,10.03
2019-03-30T01:46:28.081Z,8.80
2019-03-30T01:49:00.083Z,10.53
2019-03-30T01:51:32.078Z,10.00
2019-03-30T01:54:04.528Z,9.30
2019-03-30T01:56:36.669Z,10.90
2019-03-30T01:59:09.061Z,11.70
2019-03-30T02:01:41.208Z,12.53
2019-03-30T02:04:13.196Z,13.73
2019-03-30T02:06:45.188Z,10.07
2019-03-30T02:09:17.352Z,13.87
2019-03-30T02:11:49.296Z,15.03
2019-03-30T02:14:21.196Z,12.53
2019-03-30T02:16:53.258Z,10.07
2019-03-30T02:19:25.244Z,14.50
2019-03-30T02:21:57.394Z,10.10
2019-03-30T02:24:29.508Z,11.57
2019-03-30T02:27:01.858Z,10.30
2019-03-30T02:29:34.101Z,10.53
2019-03-30T02:32:06.198Z,10.67
2019-03-30T02:34:38.174Z,9.00
2019-03-30T02:37:10.262Z,9.80
2019-03-30T02:39:42.311Z,8.53
2019-03-30T02:42:14.310Z,9.80
2019-03-30T02:44:46.465Z,10.87
2019-03-30T02:47:18.592Z,9.77
2019-03-30T02:49:50.503Z,12.40
2019-03-30T02:52:23.162Z,10.27
2019-03-30T02:54:55.089Z,11.07
2019-03-30T02:57:27.153Z,10.70
2019-03-30T02:59:59.563Z,10.07
2019-03-30T03:02:31.667Z,11.60
2019-03-30T03:05:03.726Z,10.20
2019-03-30T03:07:36.150Z,11.67
2019-03-30T03:10:09.961Z,10.60
2019-03-30T03:12:41.904Z,12.07
2019-03-30T03:15:14.618Z,9.27
2019-03-30T03:17:46.588Z,11.47
2019-03-30T03:20:18.866Z,13.07
2019-03-30T03:22:51.047Z,12.60
2019-03-30T03:25:24.353Z,14.23
2019-03-30T03:27:56.475Z,12.63
2019-03-30T03:30:28.571Z,12.87
2019-03-30T03:33:00.640Z,13.70
2019-03-30T03:35:33.099Z,13.27
2019-03-30T03:38:05.363Z,9.77
2019-03-30T03:40:38.046Z,16.83
2019-03-30T03:43:10.147Z,14.50
2019-03-30T03:45:42.242Z,12.80
2019-03-30T03:48:14.332Z,11.10
2019-03-30T03:50:59.157Z,14.93
2019-03-30T03:53:33.100Z,14.13
2019-03-30T03:56:08.460Z,13.03
2019-03-30T03:58:43.471Z,11.77
2019-03-30T04:01:20.203Z,17.00
2019-03-30T04:03:56.066Z,21.27
2019-03-30T04:06:31.709Z,20.60
2019-03-30T04:09:07.685Z,23.47
2019-03-30T04:11:43.855Z,24.93
2019-03-30T04:14:19.997Z,20.07
2019-03-30T04:16:52.892Z,19.50
2019-03-30T04:19:24.955Z,15.37
2019-03-30T04:21:56.953Z,14.57
2019-03-30T04:24:28.873Z,13.80
2019-03-30T04:27:01.231Z,10.60
2019-03-30T04:29:33.214Z,9.57
2019-03-30T04:32:05.325Z,13.47
2019-03-30T04:34:37.502Z,13.53
2019-03-30T04:37:09.408Z,11.97
2019-03-30T04:39:41.349Z,11.50
2019-03-30T04:42:13.609Z,10.07
2019-03-30T04:44:45.966Z,15.30
2019-03-30T04:47:17.932Z,10.90
2019-03-30T04:49:50.318Z,14.63
2019-03-30T04:52:22.322Z,9.87
2019-03-30T04:54:54.344Z,9.97
2019-03-30T04:57:26.297Z,11.17
2019-03-30T04:59:58.310Z,10.93
2019-03-30T05:02:30.223Z,10.23
2019-03-30T05:05:02.174Z,9.60
2019-03-30T05:07:34.135Z,10.00
2019-03-30T05:10:06.398Z,10.60
2019-03-30T05:12:38.439Z,12.10
2019-03-30T05:15:11.227Z,13.83
2019-03-30T05:17:47.324Z,10.07
2019-03-30T05:20:17.342Z,11.70
2019-03-30T05:22:51.325Z,10.83
2019-03-30T05:25:23.710Z,10.30
2019-03-30T05:27:55.618Z,10.80
2019-03-30T05:30:27.729Z,13.03
2019-03-30T05:33:06.089Z,10.93
2019-03-30T05:35:33.642Z,15.67
2019-03-30T05:38:05.806Z,11.83
2019-03-30T05:40:37.927Z,12.43
2019-03-30T05:43:10.370Z,10.37
2019-03-30T05:45:42.397Z,13.63
2019-03-30T05:48:14.290Z,15.97
2019-03-30T05:50:46.510Z,20.63
2019-03-30T05:53:19.099Z,18.07
2019-03-30T05:55:51.053Z,14.07
2019-03-30T05:58:23.071Z,10.73
2019-03-30T06:00:55.615Z,12.10
2019-03-30T06:03:27.593Z,12.30
2019-03-30T06:05:59.519Z,12.93
2019-03-30T06:08:31.849Z,14.13
2019-03-30T06:11:04.176Z,12.73
2019-03-30T06:13:36.186Z,12.63
2019-03-30T06:16:08.237Z,11.47
2019-03-30T06:18:40.549Z,12.90
2019-03-30T06:21:12.822Z,13.77
2019-03-30T06:23:44.803Z,14.60
2019-03-30T06:26:16.896Z,13.63
2019-03-30T06:28:48.962Z,12.83
2019-03-30T06:31:20.947Z,14.40
2019-03-30T06:33:52.918Z,14.83
2019-03-30T06:36:24.982Z,12.87
2019-03-30T06:38:57.027Z,12.67
2019-03-30T06:41:29.392Z,12.37
2019-03-30T06:44:01.276Z,12.53
2019-03-30T06:46:33.347Z,12.80
2019-03-30T06:49:05.787Z,14.57
2019-03-30T06:51:37.860Z,11.30
2019-03-30T06:54:10.025Z,12.00
2019-03-30T06:56:42.085Z,14.40
2019-03-30T06:59:14.051Z,13.53
2019-03-30T07:01:46.728Z,12.17
2019-03-30T07:04:19.272Z,13.37
2019-03-30T07:06:52.721Z,9.87
2019-03-30T07:09:28.509Z,10.80
2019-03-30T07:12:03.830Z,12.53
2019-03-30T07:14:38.963Z,10.70
2019-03-30T07:17:13.889Z,12.13
2019-03-30T07:19:51.282Z,11.90
2019-03-30T07:22:23.298Z,15.13
2019-03-30T07:24:55.301Z,12.73
2019-03-30T07:27:27.507Z,12.10
2019-03-30T07:29:59.526Z,12.63
2019-03-30T07:32:32.308Z,11.80
2019-03-30T07:35:04.688Z,10.57
2019-03-30T07:37:36.887Z,10.58
2019-03-30T07:40:09.382Z,11.12
2019-03-30T07:42:42.103Z,12.15
2019-03-30T07:45:14.368Z,13.20
2019-03-30T07:47:46.866Z,10.85
2019-03-30T07:50:19.200Z,9.88
2019-03-30T07:52:51.348Z,10.35
2019-03-30T07:55:23.456Z,11.95
2019-03-30T07:57:55.640Z,11.80
2019-03-30T08:00:30.706Z,10.80
2019-03-30T08:03:01.807Z,9.73
2019-03-30T08:05:34.314Z,10.30
2019-03-30T08:08:06.405Z,10.40
2019-03-30T08:10:38.552Z,9.98
2019-03-30T08:13:10.615Z,9.85
2019-03-30T08:15:42.967Z,10.88
2019-03-30T08:18:15.134Z,11.33
2019-03-30T08:20:47.402Z,12.55
2019-03-30T08:23:19.485Z,10.98
2019-03-30T08:25:51.789Z,10.32
2019-03-30T08:28:24.215Z,12.98
2019-03-30T08:30:56.121Z,12.63
2019-03-30T08:33:28.588Z,12.85
2019-03-30T08:36:01.218Z,13.13
2019-03-30T08:38:33.205Z,12.68
2019-03-30T08:41:05.276Z,11.12
2019-03-30T08:43:37.309Z,11.70
2019-03-30T08:46:09.311Z,10.80
2019-03-30T08:48:41.553Z,12.73
2019-03-30T08:51:13.557Z,12.80
2019-03-30T08:53:54.578Z,12.23
2019-03-30T08:56:19.257Z,11.53
2019-03-30T08:58:51.239Z,13.55
2019-03-30T09:01:23.419Z,11.63
2019-03-30T09:03:55.868Z,12.15
2019-03-30T09:06:27.940Z,13.40
2019-03-30T09:09:00.447Z,11.88
2019-03-30T09:11:32.592Z,12.10
2019-03-30T09:14:04.745Z,12.37
2019-03-30T09:16:37.171Z,12.90
2019-03-30T09:19:09.218Z,10.23
2019-03-30T09:21:41.211Z,9.60
2019-03-30T09:24:13.300Z,10.82
2019-03-30T09:26:45.814Z,9.38
2019-03-30T09:29:18.181Z,10.25
2019-03-30T09:31:50.229Z,10.00
2019-03-30T09:34:22.376Z,9.53
2019-03-30T09:36:54.696Z,13.38
2019-03-30T09:39:27.161Z,11.80
2019-03-30T09:41:59.092Z,9.73
2019-03-30T09:44:31.093Z,10.35
2019-03-30T09:47:08.391Z,10.10
2019-03-30T09:49:40.421Z,9.95
2019-03-30T09:52:12.660Z,11.33
2019-03-30T09:54:44.862Z,15.60
2019-03-30T09:57:16.905Z,12.55
2019-03-30T09:59:49.538Z,11.80
2019-03-30T10:02:21.545Z,11.57
2019-03-30T10:04:53.587Z,9.80
2019-03-30T10:07:26.141Z,9.75
2019-03-30T10:09:58.242Z,11.30
2019-03-30T10:12:30.417Z,8.75
2019-03-30T10:15:02.485Z,9.35
2019-03-30T10:17:34.497Z,10.38
2019-03-30T10:20:07.670Z,10.13
2019-03-30T10:22:42.186Z,10.00
2019-03-30T10:25:14.202Z,9.73
2019-03-30T10:27:46.297Z,7.83
2019-03-30T10:30:18.539Z,10.25
2019-03-30T10:32:51.006Z,7.53
2019-03-30T10:35:23.101Z,8.55
2019-03-30T10:37:55.123Z,9.05
2019-03-30T10:40:27.296Z,7.33
2019-03-30T10:42:59.361Z,9.15
2019-03-30T10:45:31.434Z,9.50
2019-03-30T10:48:03.436Z,8.88
2019-03-30T10:50:35.436Z,7.78
2019-03-30T10:53:07.574Z,6.87
2019-03-30T10:55:40.097Z,6.30
2019-03-30T10:58:12.130Z,11.05
2019-03-30T11:00:44.344Z,7.75
2019-03-30T11:03:16.357Z,6.85
2019-03-30T11:05:48.359Z,7.65
2019-03-30T11:08:20.301Z,7.22
2019-03-30T11:10:52.400Z,7.17
2019-03-30T11:13:24.312Z,6.55
2019-03-30T11:15:56.214Z,6.25
2019-03-30T11:18:28.146Z,6.67
2019-03-30T11:21:00.255Z,6.47
2019-03-30T11:23:32.352Z,7.05
2019-03-30T11:26:04.594Z,6.78
2019-03-30T11:28:36.949Z,6.40
2019-03-30T11:31:09.023Z,7.25
2019-03-30T11:33:41.028Z,6.87
2019-03-30T11:36:32.078Z,6.92
2019-03-30T11:39:05.019Z,7.33
2019-03-30T11:41:36.996Z,7.75
2019-03-30T11:44:08.988Z,9.18
2019-03-30T11:46:40.905Z,7.50
2019-03-30T11:49:13.238Z,7.92
2019-03-30T11:51:45.658Z,6.55
2019-03-30T11:54:18.044Z,9.15
2019-03-30T11:56:50.037Z,7.78
2019-03-30T11:59:22.119Z,7.10
2019-03-30T12:01:54.037Z,8.18
2019-03-30T12:04:26.074Z,9.93
2019-03-30T12:06:58.391Z,6.37
2019-03-30T12:09:30.466Z,7.80
2019-03-30T12:12:03.856Z,7.28
2019-03-30T12:14:35.836Z,8.50
2019-03-30T12:17:08.325Z,8.70
2019-03-30T12:19:40.206Z,7.07
2019-03-30T12:22:12.146Z,7.00
2019-03-30T12:24:44.272Z,7.22
2019-03-30T12:27:16.790Z,9.80
2019-03-30T12:29:49.184Z,6.10
2019-03-30T12:32:21.325Z,6.30
2019-03-30T12:34:53.334Z,6.60
2019-03-30T12:37:25.470Z,8.33
2019-03-30T12:39:58.403Z,7.50
2019-03-30T12:42:30.674Z,8.50
2019-03-30T12:45:02.764Z,7.65
2019-03-30T12:47:34.845Z,9.23
2019-03-30T12:50:07.371Z,4.85
2019-03-30T12:52:39.470Z,5.42
2019-03-30T12:55:12.357Z,6.62
2019-03-30T12:57:44.294Z,6.25
2019-03-30T13:00:16.801Z,5.47
2019-03-30T13:02:48.779Z,5.80
2019-03-30T13:05:20.889Z,8.10
2019-03-30T13:07:52.913Z,6.33
2019-03-30T13:10:25.017Z,6.23
2019-03-30T13:12:56.930Z,7.85
2019-03-30T13:15:29.072Z,9.60
2019-03-30T13:18:01.067Z,6.55
2019-03-30T13:20:32.975Z,5.37
2019-03-30T13:23:05.046Z,6.12
2019-03-30T13:25:37.019Z,6.47
2019-03-30T13:28:09.109Z,5.33
2019-03-30T13:30:41.487Z,7.17
2019-03-30T13:33:13.747Z,5.75
2019-03-30T13:35:45.743Z,5.90
2019-03-30T13:38:20.629Z,5.63
2019-03-30T13:40:51.646Z,5.90
2019-03-30T13:43:23.577Z,5.25
2019-03-30T13:45:55.824Z,5.60
2019-03-30T13:48:27.752Z,7.73
2019-03-30T13:51:00.215Z,5.72
2019-03-30T13:53:32.577Z,5.77
2019-03-30T13:56:16.710Z,7.10
2019-03-30T13:58:38.267Z,7.55
2019-03-30T14:01:10.327Z,7.33
2019-03-30T14:03:42.360Z,12.73
2019-03-30T14:06:14.441Z,7.45
2019-03-30T14:08:46.414Z,6.93
2019-03-30T14:11:18.429Z,8.63
2019-03-30T14:13:50.419Z,9.30
2019-03-30T14:16:22.767Z,8.40
2019-03-30T14:18:55.031Z,11.63
2019-03-30T14:21:27.349Z,9.17
2019-03-30T14:23:59.296Z,7.70
2019-03-30T14:26:31.959Z,10.20
2019-03-30T14:29:04.633Z,8.53
2019-03-30T14:31:36.621Z,9.80
2019-03-30T14:34:08.970Z,6.27
2019-03-30T14:36:41.242Z,7.17
2019-03-30T14:39:13.224Z,8.60
2019-03-30T14:41:45.552Z,9.43
2019-03-30T14:44:17.537Z,8.03
2019-03-30T14:46:50.295Z,6.53
2019-03-30T14:49:22.298Z,6.50
2019-03-30T14:51:54.557Z,6.27
2019-03-30T14:54:27.232Z,6.73
2019-03-30T14:56:59.184Z,6.77
2019-03-30T14:59:31.758Z,5.83
2019-03-30T15:02:04.052Z,7.00
2019-03-30T15:04:36.524Z,7.40
2019-03-30T15:07:08.940Z,7.00
2019-03-30T15:09:41.014Z,6.57
2019-03-30T15:12:12.996Z,9.10
2019-03-30T15:14:44.981Z,9.60
2019-03-30T15:17:17.333Z,7.67
2019-03-30T15:19:49.743Z,7.50
2019-03-30T15:22:22.109Z,8.33
2019-03-30T15:24:54.345Z,30.57
2019-03-30T15:27:26.264Z,9.00
2019-03-30T15:29:58.631Z,6.13
2019-03-30T15:32:30.550Z,10.23
2019-03-30T15:35:02.684Z,7.50
2019-03-30T15:37:34.925Z,38.83
2019-03-30T15:40:08.512Z,18.17
2019-03-30T15:42:41.069Z,14.10
2019-03-30T15:45:14.775Z,10.97
2019-03-30T15:47:47.070Z,17.33
2019-03-30T15:50:20.584Z,12.73
2019-03-30T15:52:52.658Z,12.80
2019-03-30T15:55:24.826Z,12.63
2019-03-30T15:57:57.005Z,13.10
2019-03-30T16:00:29.414Z,12.17
2019-03-30T16:03:01.794Z,14.43
2019-03-30T16:05:33.810Z,16.00
2019-03-30T16:08:05.967Z,17.83
2019-03-30T16:10:38.062Z,13.43
2019-03-30T16:13:10.475Z,14.63
2019-03-30T16:15:44.594Z,15.47
2019-03-30T16:18:16.751Z,12.80
2019-03-30T16:20:48.826Z,13.80
2019-03-30T16:23:20.854Z,13.47
2019-03-30T16:25:53.312Z,14.43
2019-03-30T16:28:25.298Z,12.40
2019-03-30T16:30:57.628Z,13.77
2019-03-30T16:33:29.731Z,13.03
2019-03-30T16:36:02.835Z,13.17
2019-03-30T16:38:35.472Z,16.37
2019-03-30T16:41:07.534Z,13.27
2019-03-30T16:43:39.482Z,12.67
2019-03-30T16:46:12.318Z,13.27
2019-03-30T16:48:44.667Z,13.60
2019-03-30T16:51:16.876Z,14.17
2019-03-30T16:53:48.877Z,14.40
2019-03-30T16:56:20.793Z,12.37
2019-03-30T16:58:52.794Z,12.33
2019-03-30T17:01:24.755Z,15.07
2019-03-30T17:03:57.074Z,14.33
2019-03-30T17:06:29.577Z,16.83
2019-03-30T17:09:01.651Z,14.10
2019-03-30T17:11:33.551Z,16.50
2019-03-30T17:14:05.624Z,16.17
2019-03-30T17:16:37.651Z,16.07
2019-03-30T17:19:09.591Z,15.87
2019-03-30T17:21:41.580Z,44.87
2019-03-30T17:24:13.506Z,16.53
2019-03-30T17:26:45.465Z,24.33
2019-03-30T17:29:17.534Z,14.77
2019-03-30T17:31:49.529Z,13.67
2019-03-30T17:34:21.611Z,14.33
2019-03-30T17:36:53.596Z,19.10
2019-03-30T17:39:25.858Z,15.27
2019-03-30T17:41:58.087Z,15.73
2019-03-30T17:44:30.355Z,15.00
2019-03-30T17:47:02.443Z,15.00
2019-03-30T17:49:34.365Z,15.20
2019-03-30T17:52:06.424Z,16.43
2019-03-30T17:54:39.944Z,16.50
2019-03-30T17:57:12.110Z,17.50
2019-03-30T17:59:44.037Z,15.23
2019-03-30T18:02:16.125Z,15.20
2019-03-30T18:04:48.189Z,16.63
2019-03-30T18:07:21.269Z,15.27
2019-03-30T18:09:53.322Z,16.90
2019-03-30T18:12:25.338Z,18.53
2019-03-30T18:14:57.351Z,20.73
2019-03-30T18:17:29.336Z,19.07
2019-03-30T18:20:01.403Z,22.80
2019-03-30T18:22:33.458Z,29.27
2019-03-30T18:25:06.169Z,22.07
2019-03-30T18:27:38.673Z,20.57
2019-03-30T18:30:11.713Z,23.03
2019-03-30T18:32:44.341Z,16.07
2019-03-30T18:35:16.506Z,19.27
2019-03-30T18:37:48.775Z,18.10
2019-03-30T18:40:31.027Z,23.07
2019-03-30T18:43:04.557Z,20.50
2019-03-30T18:45:36.595Z,21.87
2019-03-30T18:48:19.034Z,20.43
2019-03-30T18:50:51.159Z,23.73
2019-03-30T18:53:23.322Z,23.43
2019-03-30T18:55:55.341Z,23.43
2019-03-30T18:58:40.738Z,21.57
2019-03-30T19:01:01.226Z,18.03
2019-03-30T19:03:33.423Z,17.70
2019-03-30T19:06:06.127Z,16.33
2019-03-30T19:08:38.261Z,19.13
2019-03-30T19:11:10.906Z,15.13
2019-03-30T19:13:43.050Z,15.00
2019-03-30T19:16:15.044Z,16.33
2019-03-30T19:18:47.110Z,16.03
2019-03-30T19:21:19.396Z,19.00
2019-03-30T19:23:51.670Z,14.67
2019-03-30T19:26:23.565Z,17.40
2019-03-30T19:28:56.790Z,17.60
2019-03-30T19:31:28.984Z,22.47
2019-03-30T19:34:00.989Z,20.60
2019-03-30T19:36:32.908Z,24.07
2019-03-30T19:39:08.433Z,21.53
2019-03-30T19:41:40.425Z,19.83
2019-03-30T19:44:13.279Z,22.27
2019-03-30T19:46:45.384Z,21.30
2019-03-30T19:49:17.575Z,20.80
2019-03-30T19:51:49.826Z,23.50
2019-03-30T19:54:22.514Z,21.33
2019-03-30T19:56:54.502Z,21.50
2019-03-30T19:59:26.432Z,20.47
2019-03-30T20:01:58.677Z,21.33
2019-03-30T20:04:30.669Z,17.77
2019-03-30T20:07:02.675Z,20.70
2019-03-30T20:09:34.784Z,19.00
2019-03-30T20:12:07.666Z,17.47
2019-03-30T20:14:40.054Z,19.73
2019-03-30T20:17:12.429Z,17.37
2019-03-30T20:19:44.699Z,18.83
2019-03-30T20:22:16.697Z,21.27
2019-03-30T20:24:48.682Z,19.73
2019-03-30T20:27:20.690Z,23.07
2019-03-30T20:29:52.707Z,20.33
2019-03-30T20:32:24.649Z,21.60
2019-03-30T20:34:56.562Z,22.13
2019-03-30T20:37:28.560Z,18.60
2019-03-30T20:40:00.533Z,19.40
2019-03-30T20:42:32.711Z,20.90
2019-03-30T20:45:06.441Z,23.33
2019-03-30T20:47:38.620Z,21.47
2019-03-30T20:50:11.424Z,23.27
2019-03-30T20:52:43.421Z,20.27
2019-03-30T20:55:15.864Z,21.17
2019-03-30T20:57:47.944Z,21.33
2019-03-30T21:00:20.303Z,21.90
2019-03-30T21:02:52.808Z,18.70
2019-03-30T21:05:24.894Z,21.73
2019-03-30T21:07:57.242Z,18.23
2019-03-30T21:10:29.595Z,18.37
2019-03-30T21:13:01.601Z,19.90
2019-03-30T21:15:33.716Z,19.37
2019-03-30T21:18:05.955Z,23.97
2019-03-30T21:20:37.959Z,23.57
2019-03-30T21:23:09.950Z,26.80
2019-03-30T21:25:42.226Z,20.73
2019-03-30T21:28:14.279Z,21.70
2019-03-30T21:30:46.418Z,20.77
2019-03-30T21:33:18.321Z,22.40
2019-03-30T21:35:50.421Z,19.43
2019-03-30T21:38:22.691Z,21.90
2019-03-30T21:40:55.005Z,21.00
2019-03-30T21:43:27.037Z,21.57
2019-03-30T21:45:58.986Z,21.47
2019-03-30T21:48:30.980Z,21.68
2019-03-30T21:51:03.274Z,20.13
2019-03-30T21:53:35.634Z,24.03
2019-03-30T21:56:07.719Z,18.27
2019-03-30T21:58:39.971Z,19.37
2019-03-30T22:01:12.250Z,21.77
2019-03-30T22:03:45.440Z,19.73
2019-03-30T22:06:17.601Z,21.93
2019-03-30T22:08:52.802Z,19.53
2019-03-30T22:11:24.744Z,19.10
2019-03-30T22:13:56.725Z,19.17
2019-03-30T22:16:28.802Z,20.00
2019-03-30T22:19:00.807Z,18.90
2019-03-30T22:21:32.693Z,22.50
2019-03-30T22:24:04.673Z,19.80
2019-03-30T22:26:36.786Z,27.47
2019-03-30T22:29:09.084Z,22.33
2019-03-30T22:31:41.396Z,22.23
2019-03-30T22:34:13.360Z,22.33
2019-03-30T22:36:45.381Z,23.73
2019-03-30T22:39:17.287Z,25.73
2019-03-30T22:41:49.279Z,23.00
2019-03-30T22:44:21.349Z,25.20
2019-03-30T22:46:53.274Z,24.17
2019-03-30T22:49:25.258Z,22.50
2019-03-30T22:51:57.534Z,25.97
2019-03-30T22:54:29.451Z,21.93
2019-03-30T22:57:01.390Z,22.43
2019-03-30T22:59:33.371Z,22.17
2019-03-30T23:02:05.778Z,22.73
2019-03-30T23:04:38.156Z,19.17
2019-03-30T23:07:10.253Z,24.93
2019-03-30T23:09:42.297Z,22.30
2019-03-30T23:12:14.523Z,24.50
2019-03-30T23:14:46.496Z,34.47
2019-03-30T23:17:18.469Z,33.27
2019-03-30T23:19:50.376Z,27.10
2019-03-30T23:22:22.308Z,24.10
2019-03-30T23:24:54.958Z,22.23
2019-03-30T23:27:27.302Z,27.17
2019-03-30T23:29:59.204Z,26.47
2019-03-30T23:32:31.203Z,20.90
2019-03-30T23:35:03.524Z,24.93
2019-03-30T23:37:35.583Z,26.80
2019-03-30T23:40:08.101Z,23.07
2019-03-30T23:42:40.152Z,22.83
2019-03-30T23:45:14.024Z,23.77
2019-03-30T23:47:46.556Z,21.60
2019-03-30T23:50:18.965Z,22.60
2019-03-30T23:52:51.712Z,23.90
2019-03-30T23:55:23.757Z,23.10
2019-03-30T23:57:55.804Z,22.20
